Port Moresby Jacksons International Airport
AYPY : now visible

Airfield :











YOU CAN JOIN US ON...

 
LOGIN :

Register | Disclaimer

   EN    FR    IT 

 









Legend :    VFR   Marginal VFR   IFR   Intensive IFR   Very Intensive IFR
Visi :
Ceiling :
>= 8 km
>= 3000ft
5 to 8 km
1000 to 3000 ft
1500m to 5 km
500 to 1000 ft
800 to 1500m
200 to 500 ft
< 800m
< 200 ft
Symbols :   Thunderstorms  Fog  Heavy snow  Heavy precipitations  Wind > 20 kt






- Airport Elevation : 146 ft
- IATA code : POM


AYPY - Port Moresby Jacksons International

CURRENT METAR :
  • 280900Z VRB03KT 9999 SCT050 28/26 Q1007 RMK/CB TO N AND NE

EXPIRED METARs :
  • 280800Z 26010KT 9999 SCT050 30/26 Q1006 RMK:CB TO N AND E
  • 280700Z 25013KT 9999 SCT050 31/25 Q1005 RMK:CB TO N AND NE

TAF TAF AYPY
Valid from the 28 at 00:00 until the 29 at 00:00 UTC


272207Z 2800/2824 34007KT 9999 SCT020
FM280300 25006KT 9999 SCT020 FEW018CB T 31 33 32 29 Q 1009 1008 1006 1007



MET'MAP, your aeronautical weather chart ! - Copyright ORBIFLY December 2007 - Disclaimer

ORBIFLY MET'MAP TEAM :

Programming & Development : Alexandra Zaïnal
Concept & original design : Baudouin d'Aumeries
Assistance for programming : Marc-Olivier Méhu
Technical & hardware support : Manuel Goepfert

Contact : metmap@orbifly.com




SOURCES & CREDITS :

   NOAA       Earth
Advisory